sensor_id;sensor_type;location;lat;lon;timestamp;pressure;altitude;pressure_sealevel;temperature;humidity
23261;BME280;11799;47.740;-3.390;2023-07-20T00:01:45;101810.56;;;17.11;100.00
23261;BME280;11799;47.740;-3.390;2023-07-20T00:04:12;101815.91;;;17.11;100.00
23261;BME280;11799;47.740;-3.390;2023-07-20T00:06:38;101808.31;;;17.07;100.00
23261;BME280;11799;47.740;-3.390;2023-07-20T00:09:08;101803.81;;;17.07;100.00
23261;BME280;11799;47.740;-3.390;2023-07-20T00:11:37;101802.28;;;17.05;100.00
23261;BME280;11799;47.740;-3.390;2023-07-20T00:14:07;101791.88;;;17.02;100.00
23261;BME280;11799;47.740;-3.390;2023-07-20T00:16:32;101791.88;;;17.02;100.00
23261;BME280;11799;47.740;-3.390;2023-07-20T00:18:58;101789.75;;;16.96;100.00
23261;BME280;11799;47.740;-3.390;2023-07-20T00:21:25;101789.44;;;16.89;100.00
23261;BME280;11799;47.740;-3.390;2023-07-20T00:23:50;101786.66;;;16.91;100.00
23261;BME280;11799;47.740;-3.390;2023-07-20T00:26:16;101790.16;;;16.91;100.00
23261;BME280;11799;47.740;-3.390;2023-07-20T00:28:42;101793.81;;;16.90;100.00
23261;BME280;11799;47.740;-3.390;2023-07-20T00:31:08;101791.97;;;16.91;100.00
23261;BME280;11799;47.740;-3.390;2023-07-20T00:33:36;101791.97;;;16.91;100.00
23261;BME280;11799;47.740;-3.390;2023-07-20T00:36:01;101793.66;;;16.92;100.00
23261;BME280;11799;47.740;-3.390;2023-07-20T00:38:27;101787.06;;;16.86;100.00
23261;BME280;11799;47.740;-3.390;2023-07-20T00:40:53;101794.22;;;16.86;100.00
23261;BME280;11799;47.740;-3.390;2023-07-20T00:43:18;101795.75;;;16.88;100.00
23261;BME280;11799;47.740;-3.390;2023-07-20T00:45:44;101800.66;;;16.83;100.00
23261;BME280;11799;47.740;-3.390;2023-07-20T00:48:10;101788.44;;;16.80;100.00
23261;BME280;11799;47.740;-3.390;2023-07-20T00:50:36;101789.56;;;16.78;100.00
23261;BME280;11799;47.740;-3.390;2023-07-20T00:53:04;101791.25;;;16.79;100.00
23261;BME280;11799;47.740;-3.390;2023-07-20T00:55:32;101793.22;;;16.77;100.00
23261;BME280;11799;47.740;-3.390;2023-07-20T00:57:59;101791.81;;;16.73;100.00
23261;BME280;11799;47.740;-3.390;2023-07-20T01:00:25;101795.31;;;16.73;100.00
23261;BME280;11799;47.740;-3.390;2023-07-20T01:02:51;101788.56;;;16.69;100.00
23261;BME280;11799;47.740;-3.390;2023-07-20T01:05:17;101787.25;;;16.64;100.00
23261;BME280;11799;47.740;-3.390;2023-07-20T01:07:49;101789.56;;;16.68;100.00
23261;BME280;11799;47.740;-3.390;2023-07-20T01:10:39;101783.38;;;16.68;100.00
23261;BME280;11799;47.740;-3.390;2023-07-20T01:13:06;101788.72;;;16.68;100.00
23261;BME280;11799;47.740;-3.390;2023-07-20T01:15:35;101788.13;;;16.64;100.00
23261;BME280;11799;47.740;-3.390;2023-07-20T01:18:01;101790.19;;;16.61;100.00
23261;BME280;11799;47.740;-3.390;2023-07-20T01:20:28;101787.94;;;16.56;100.00
23261;BME280;11799;47.740;-3.390;2023-07-20T01:25:45;101777.25;;;16.56;100.00
23261;BME280;11799;47.740;-3.390;2023-07-20T01:31:21;101781.19;;;16.52;100.00
23261;BME280;11799;47.740;-3.390;2023-07-20T01:33:48;101777.81;;;16.50;100.00
23261;BME280;11799;47.740;-3.390;2023-07-20T01:36:17;101787.50;;;16.51;100.00
23261;BME280;11799;47.740;-3.390;2023-07-20T01:38:43;101779.19;;;16.44;100.00
23261;BME280;11799;47.740;-3.390;2023-07-20T01:41:10;101776.25;;;16.47;100.00
23261;BME280;11799;47.740;-3.390;2023-07-20T01:43:37;101777.34;;;16.45;100.00
23261;BME280;11799;47.740;-3.390;2023-07-20T01:46:04;101770.22;;;16.45;100.00
23261;BME280;11799;47.740;-3.390;2023-07-20T01:48:29;101770.22;;;16.45;100.00
23261;BME280;11799;47.740;-3.390;2023-07-20T01:50:55;101776.38;;;16.46;100.00
23261;BME280;11799;47.740;-3.390;2023-07-20T01:53:21;101773.13;;;16.42;100.00
23261;BME280;11799;47.740;-3.390;2023-07-20T01:55:47;101772.56;;;16.39;100.00
23261;BME280;11799;47.740;-3.390;2023-07-20T01:58:13;101768.59;;;16.33;100.00
23261;BME280;11799;47.740;-3.390;2023-07-20T02:00:38;101772.66;;;16.28;100.00
23261;BME280;11799;47.740;-3.390;2023-07-20T02:03:04;101766.34;;;16.29;100.00
23261;BME280;11799;47.740;-3.390;2023-07-20T02:05:30;101759.31;;;16.28;100.00
23261;BME280;11799;47.740;-3.390;2023-07-20T02:07:56;101761.13;;;16.27;100.00
23261;BME280;11799;47.740;-3.390;2023-07-20T02:10:21;101756.22;;;16.23;100.00
23261;BME280;11799;47.740;-3.390;2023-07-20T02:12:47;101754.25;;;16.25;100.00
23261;BME280;11799;47.740;-3.390;2023-07-20T02:15:13;101757.06;;;16.23;100.00
23261;BME280;11799;47.740;-3.390;2023-07-20T02:17:42;101752.97;;;16.19;100.00
23261;BME280;11799;47.740;-3.390;2023-07-20T02:20:08;101750.28;;;16.19;100.00
23261;BME280;11799;47.740;-3.390;2023-07-20T02:22:36;101747.75;;;16.17;100.00
23261;BME280;11799;47.740;-3.390;2023-07-20T02:25:06;101750.03;;;16.22;100.00
23261;BME280;11799;47.740;-3.390;2023-07-20T02:27:35;101744.00;;;16.20;100.00
23261;BME280;11799;47.740;-3.390;2023-07-20T02:30:01;101739.22;;;16.14;100.00
23261;BME280;11799;47.740;-3.390;2023-07-20T02:32:28;101734.88;;;16.13;100.00
23261;BME280;11799;47.740;-3.390;2023-07-20T02:34:53;101740.06;;;16.14;100.00
23261;BME280;11799;47.740;-3.390;2023-07-20T02:37:19;101739.50;;;16.11;100.00
23261;BME280;11799;47.740;-3.390;2023-07-20T02:39:44;101739.34;;;16.12;100.00
23261;BME280;11799;47.740;-3.390;2023-07-20T02:42:11;101735.72;;;16.13;100.00
23261;BME280;11799;47.740;-3.390;2023-07-20T02:44:36;101735.13;;;16.10;100.00
23261;BME280;11799;47.740;-3.390;2023-07-20T02:47:02;101743.00;;;16.11;100.00
23261;BME280;11799;47.740;-3.390;2023-07-20T02:49:27;101739.50;;;16.11;100.00
23261;BME280;11799;47.740;-3.390;2023-07-20T02:51:53;101735.41;;;16.07;100.00
23261;BME280;11799;47.740;-3.390;2023-07-20T02:54:19;101732.03;;;16.05;100.00
23261;BME280;11799;47.740;-3.390;2023-07-20T02:56:45;101743.06;;;16.00;100.00
23261;BME280;11799;47.740;-3.390;2023-07-20T02:59:10;101732.56;;;15.99;100.00
23261;BME280;11799;47.740;-3.390;2023-07-20T03:01:36;101736.91;;;16.00;100.00
23261;BME280;11799;47.740;-3.390;2023-07-20T03:04:02;101732.09;;;15.94;100.00
23261;BME280;11799;47.740;-3.390;2023-07-20T03:06:27;101736.13;;;15.88;100.00
23261;BME280;11799;47.740;-3.390;2023-07-20T03:08:53;101724.56;;;15.78;100.00
23261;BME280;11799;47.740;-3.390;2023-07-20T03:11:20;101729.91;;;15.78;100.00
23261;BME280;11799;47.740;-3.390;2023-07-20T03:13:47;101727.63;;;15.73;100.00
23261;BME280;11799;47.740;-3.390;2023-07-20T03:16:19;101732.56;;;15.78;100.00
23261;BME280;11799;47.740;-3.390;2023-07-20T03:18:45;101737.31;;;15.74;100.00
23261;BME280;11799;47.740;-3.390;2023-07-20T03:21:11;101725.94;;;15.72;100.00
23261;BME280;11799;47.740;-3.390;2023-07-20T03:23:37;101721.72;;;15.70;100.00
23261;BME280;11799;47.740;-3.390;2023-07-20T03:26:03;101717.63;;;15.66;100.00
23261;BME280;11799;47.740;-3.390;2023-07-20T03:28:30;101726.31;;;15.68;100.00
23261;BME280;11799;47.740;-3.390;2023-07-20T03:30:56;101720.28;;;15.66;100.00
23261;BME280;11799;47.740;-3.390;2023-07-20T03:33:25;101726.47;;;15.66;100.00
23261;BME280;11799;47.740;-3.390;2023-07-20T03:35:51;101729.97;;;15.67;100.00
23261;BME280;11799;47.740;-3.390;2023-07-20T03:38:17;101730.81;;;15.67;100.00
23261;BME280;11799;47.740;-3.390;2023-07-20T03:40:50;101734.31;;;15.68;100.00
23261;BME280;11799;47.740;-3.390;2023-07-20T03:43:17;101726.19;;;15.69;100.00
23261;BME280;11799;47.740;-3.390;2023-07-20T03:45:42;101729.56;;;15.71;100.00
23261;BME280;11799;47.740;-3.390;2023-07-20T03:48:08;101720.75;;;15.71;100.00
23261;BME280;11799;47.740;-3.390;2023-07-20T03:50:34;101724.78;;;15.65;100.00
23261;BME280;11799;47.740;-3.390;2023-07-20T03:52:59;101734.69;;;15.63;100.00
23261;BME280;11799;47.740;-3.390;2023-07-20T03:55:25;101730.22;;;15.64;100.00
23261;BME280;11799;47.740;-3.390;2023-07-20T03:57:50;101724.91;;;15.64;100.00
23261;BME280;11799;47.740;-3.390;2023-07-20T04:00:17;101724.06;;;15.63;100.00
23261;BME280;11799;47.740;-3.390;2023-07-20T04:02:43;101730.94;;;15.66;100.00
23261;BME280;11799;47.740;-3.390;2023-07-20T04:05:09;101730.22;;;15.64;100.00
23261;BME280;11799;47.740;-3.390;2023-07-20T04:07:35;101725.16;;;15.61;100.00
23261;BME280;11799;47.740;-3.390;2023-07-20T04:10:01;101721.81;;;15.59;100.00
23261;BME280;11799;47.740;-3.390;2023-07-20T04:12:27;101719.00;;;15.60;100.00
23261;BME280;11799;47.740;-3.390;2023-07-20T04:14:53;101719.84;;;15.61;100.00
23261;BME280;11799;47.740;-3.390;2023-07-20T04:17:18;101719.28;;;15.57;100.00
23261;BME280;11799;47.740;-3.390;2023-07-20T04:19:44;101723.75;;;15.57;100.00
23261;BME280;11799;47.740;-3.390;2023-07-20T04:22:10;101723.50;;;15.60;100.00
23261;BME280;11799;47.740;-3.390;2023-07-20T04:24:35;101730.47;;;15.61;100.00
23261;BME280;11799;47.740;-3.390;2023-07-20T04:27:01;101732.16;;;15.62;100.00
23261;BME280;11799;47.740;-3.390;2023-07-20T04:29:27;101725.66;;;15.55;100.00
23261;BME280;11799;47.740;-3.390;2023-07-20T04:31:52;101720.59;;;15.51;100.00
23261;BME280;11799;47.740;-3.390;2023-07-20T04:34:18;101725.22;;;15.49;100.00
23261;BME280;11799;47.740;-3.390;2023-07-20T04:36:44;101720.03;;;15.48;100.00
23261;BME280;11799;47.740;-3.390;2023-07-20T04:39:10;101708.78;;;15.44;100.00
23261;BME280;11799;47.740;-3.390;2023-07-20T04:41:40;101712.28;;;15.45;100.00
23261;BME280;11799;47.740;-3.390;2023-07-20T04:44:05;101704.31;;;15.45;100.00
23261;BME280;11799;47.740;-3.390;2023-07-20T04:46:31;101703.59;;;15.43;100.00
23261;BME280;11799;47.740;-3.390;2023-07-20T04:48:58;101699.81;;;15.45;100.00
23261;BME280;11799;47.740;-3.390;2023-07-20T04:51:25;101701.78;;;15.43;100.00
23261;BME280;11799;47.740;-3.390;2023-07-20T04:53:53;101686.38;;;15.47;100.00
23261;BME280;11799;47.740;-3.390;2023-07-20T04:56:19;101687.94;;;15.49;100.00
23261;BME280;11799;47.740;-3.390;2023-07-20T04:58:46;101683.47;;;15.50;100.00
23261;BME280;11799;47.740;-3.390;2023-07-20T05:01:11;101683.91;;;15.55;100.00
23261;BME280;11799;47.740;-3.390;2023-07-20T05:03:38;101683.81;;;15.57;100.00
23261;BME280;11799;47.740;-3.390;2023-07-20T05:06:03;101683.81;;;15.57;100.00
23261;BME280;11799;47.740;-3.390;2023-07-20T05:08:29;101684.53;;;15.59;100.00
23261;BME280;11799;47.740;-3.390;2023-07-20T05:10:55;101680.91;;;15.60;100.00
23261;BME280;11799;47.740;-3.390;2023-07-20T05:13:20;101682.56;;;15.61;100.00
23261;BME280;11799;47.740;-3.390;2023-07-20T05:15:46;101678.91;;;15.62;100.00
23261;BME280;11799;47.740;-3.390;2023-07-20T05:18:15;101681.59;;;15.62;100.00
23261;BME280;11799;47.740;-3.390;2023-07-20T05:20:46;101688.34;;;15.66;100.00
23261;BME280;11799;47.740;-3.390;2023-07-20T05:23:12;101677.94;;;15.63;100.00
23261;BME280;11799;47.740;-3.390;2023-07-20T05:25:38;101675.88;;;15.66;100.00
23261;BME280;11799;47.740;-3.390;2023-07-20T05:28:04;101672.09;;;15.69;100.00
23261;BME280;11799;47.740;-3.390;2023-07-20T05:30:29;101673.91;;;15.68;100.00
23261;BME280;11799;47.740;-3.390;2023-07-20T05:32:55;101674.75;;;15.69;100.00
23261;BME280;11799;47.740;-3.390;2023-07-20T05:35:20;101672.81;;;15.71;100.00
23261;BME280;11799;47.740;-3.390;2023-07-20T05:37:46;101669.88;;;15.74;100.00
23261;BME280;11799;47.740;-3.390;2023-07-20T05:40:12;101674.81;;;15.78;100.00
23261;BME280;11799;47.740;-3.390;2023-07-20T05:42:38;101674.69;;;15.80;100.00
23261;BME280;11799;47.740;-3.390;2023-07-20T05:45:04;101667.94;;;15.76;100.00
23261;BME280;11799;47.740;-3.390;2023-07-20T05:47:30;101654.63;;;15.76;100.00
23261;BME280;11799;47.740;-3.390;2023-07-20T05:49:56;101667.09;;;15.75;100.00
23261;BME280;11799;47.740;-3.390;2023-07-20T05:52:21;101681.84;;;15.79;100.00
23261;BME280;11799;47.740;-3.390;2023-07-20T05:54:47;101686.91;;;15.82;100.00
23261;BME280;11799;47.740;-3.390;2023-07-20T05:57:13;101682.28;;;15.84;100.00
23261;BME280;11799;47.740;-3.390;2023-07-20T05:59:38;101682.59;;;15.91;100.00
23261;BME280;11799;47.740;-3.390;2023-07-20T06:02:06;101684.88;;;15.96;100.00
23261;BME280;11799;47.740;-3.390;2023-07-20T06:04:32;101683.31;;;15.93;100.00
23261;BME280;11799;47.740;-3.390;2023-07-20T06:06:58;101680.66;;;15.93;100.00
23261;BME280;11799;47.740;-3.390;2023-07-20T06:09:23;101679.41;;;15.97;100.00
23261;BME280;11799;47.740;-3.390;2023-07-20T06:11:49;101676.75;;;15.97;100.00
23261;BME280;11799;47.740;-3.390;2023-07-20T06:14:14;101677.72;;;15.96;100.00
23261;BME280;11799;47.740;-3.390;2023-07-20T06:16:40;101674.78;;;15.99;100.00
23261;BME280;11799;47.740;-3.390;2023-07-20T06:19:06;101684.91;;;16.05;100.00
23261;BME280;11799;47.740;-3.390;2023-07-20T06:21:31;101688.41;;;16.06;100.00
23261;BME280;11799;47.740;-3.390;2023-07-20T06:23:57;101688.28;;;16.07;100.00
23261;BME280;11799;47.740;-3.390;2023-07-20T06:26:24;101683.66;;;16.09;100.00
23261;BME280;11799;47.740;-3.390;2023-07-20T06:28:49;101680.59;;;16.14;100.00
23261;BME280;11799;47.740;-3.390;2023-07-20T06:31:16;101675.66;;;16.09;100.00
23261;BME280;11799;47.740;-3.390;2023-07-20T06:33:42;101675.81;;;16.17;100.00
23261;BME280;11799;47.740;-3.390;2023-07-20T06:36:07;101682.00;;;16.18;100.00
23261;BME280;11799;47.740;-3.390;2023-07-20T06:38:33;101685.09;;;16.23;100.00
23261;BME280;11799;47.740;-3.390;2023-07-20T06:40:58;101682.16;;;16.26;100.00
23261;BME280;11799;47.740;-3.390;2023-07-20T06:43:24;101693.84;;;16.35;100.00
23261;BME280;11799;47.740;-3.390;2023-07-20T06:45:53;101688.50;;;16.35;100.00
23261;BME280;11799;47.740;-3.390;2023-07-20T06:48:21;101682.19;;;16.36;100.00
23261;BME280;11799;47.740;-3.390;2023-07-20T06:50:47;101690.75;;;16.39;100.00
23261;BME280;11799;47.740;-3.390;2023-07-20T06:53:13;101694.28;;;16.40;100.00
23261;BME280;11799;47.740;-3.390;2023-07-20T06:55:38;101688.25;;;16.47;100.00
23261;BME280;11799;47.740;-3.390;2023-07-20T06:58:04;101692.06;;;16.55;100.00
23261;BME280;11799;47.740;-3.390;2023-07-20T07:00:30;101698.81;;;16.59;100.00
23261;BME280;11799;47.740;-3.390;2023-07-20T07:02:56;101697.47;;;16.64;100.00
23261;BME280;11799;47.740;-3.390;2023-07-20T07:05:21;101694.78;;;16.64;100.00
23261;BME280;11799;47.740;-3.390;2023-07-20T07:07:47;101688.34;;;16.67;100.00
23261;BME280;11799;47.740;-3.390;2023-07-20T07:10:13;101690.16;;;16.76;100.00
23261;BME280;11799;47.740;-3.390;2023-07-20T07:12:39;101676.97;;;16.84;100.00
23261;BME280;11799;47.740;-3.390;2023-07-20T07:15:05;101674.31;;;16.84;100.00
23261;BME280;11799;47.740;-3.390;2023-07-20T07:17:36;101677.69;;;16.86;100.00
23261;BME280;11799;47.740;-3.390;2023-07-20T07:20:01;101680.78;;;16.91;100.00
23261;BME280;11799;47.740;-3.390;2023-07-20T07:22:27;101677.28;;;17.00;100.00
23261;BME280;11799;47.740;-3.390;2023-07-20T07:24:52;101676.00;;;17.04;100.00
23261;BME280;11799;47.740;-3.390;2023-07-20T07:27:19;101681.78;;;17.19;100.00
23261;BME280;11799;47.740;-3.390;2023-07-20T07:29:44;101681.06;;;17.27;100.00
23261;BME280;11799;47.740;-3.390;2023-07-20T07:32:10;101675.72;;;17.27;100.00
23261;BME280;11799;47.740;-3.390;2023-07-20T07:34:37;101685.66;;;17.34;100.00
23261;BME280;11799;47.740;-3.390;2023-07-20T07:37:03;101683.00;;;17.34;100.00
23261;BME280;11799;47.740;-3.390;2023-07-20T07:39:29;101676.97;;;17.32;100.00
23261;BME280;11799;47.740;-3.390;2023-07-20T07:41:56;101675.88;;;17.25;100.00
23261;BME280;11799;47.740;-3.390;2023-07-20T07:44:22;101681.06;;;17.27;100.00
23261;BME280;11799;47.740;-3.390;2023-07-20T07:46:48;101672.63;;;17.31;100.00
23261;BME280;11799;47.740;-3.390;2023-07-20T07:49:14;101667.28;;;17.31;100.00
23261;BME280;11799;47.740;-3.390;2023-07-20T07:51:40;101673.84;;;17.37;100.00
23261;BME280;11799;47.740;-3.390;2023-07-20T07:54:06;101667.94;;;17.43;100.00
23261;BME280;11799;47.740;-3.390;2023-07-20T07:56:31;101671.19;;;17.46;100.00
23261;BME280;11799;47.740;-3.390;2023-07-20T07:58:57;101672.72;;;17.49;100.00
23261;BME280;11799;47.740;-3.390;2023-07-20T08:01:23;101666.38;;;17.60;100.00
23261;BME280;11799;47.740;-3.390;2023-07-20T08:03:48;101660.91;;;17.71;100.00
23261;BME280;11799;47.740;-3.390;2023-07-20T08:06:14;101658.50;;;17.77;100.00
23261;BME280;11799;47.740;-3.390;2023-07-20T08:08:40;101658.19;;;17.80;100.00
23261;BME280;11799;47.740;-3.390;2023-07-20T08:11:05;101657.22;;;17.81;100.00
23261;BME280;11799;47.740;-3.390;2023-07-20T08:13:31;101650.75;;;18.11;100.00
23261;BME280;11799;47.740;-3.390;2023-07-20T08:15:57;101649.06;;;18.38;100.00
23261;BME280;11799;47.740;-3.390;2023-07-20T08:18:22;101645.69;;;18.36;100.00
23261;BME280;11799;47.740;-3.390;2023-07-20T08:20:48;101644.69;;;18.37;100.00
23261;BME280;11799;47.740;-3.390;2023-07-20T08:23:14;101648.75;;;18.41;100.00
23261;BME280;11799;47.740;-3.390;2023-07-20T08:25:40;101649.16;;;18.46;100.00
23261;BME280;11799;47.740;-3.390;2023-07-20T08:28:14;101638.59;;;18.44;100.00
23261;BME280;11799;47.740;-3.390;2023-07-20T08:30:41;101641.63;;;18.49;100.00
23261;BME280;11799;47.740;-3.390;2023-07-20T08:33:09;101643.88;;;18.54;100.00
23261;BME280;11799;47.740;-3.390;2023-07-20T08:35:34;101635.53;;;18.57;100.00
23261;BME280;11799;47.740;-3.390;2023-07-20T08:38:00;101641.47;;;18.61;100.00
23261;BME280;11799;47.740;-3.390;2023-07-20T08:40:27;101646.50;;;18.64;100.00
23261;BME280;11799;47.740;-3.390;2023-07-20T08:42:54;101635.06;;;18.71;100.00
23261;BME280;11799;47.740;-3.390;2023-07-20T08:45:21;101641.63;;;18.77;100.00
23261;BME280;11799;47.740;-3.390;2023-07-20T08:47:48;101626.50;;;18.68;100.00
23261;BME280;11799;47.740;-3.390;2023-07-20T08:50:16;101643.75;;;18.73;100.00
23261;BME280;11799;47.740;-3.390;2023-07-20T08:52:41;101635.75;;;18.73;100.00
23261;BME280;11799;47.740;-3.390;2023-07-20T08:55:07;101639.72;;;18.69;100.00
23261;BME280;11799;47.740;-3.390;2023-07-20T08:57:33;101638.78;;;18.61;100.00
23261;BME280;11799;47.740;-3.390;2023-07-20T09:00:03;101638.88;;;18.69;100.00
23261;BME280;11799;47.740;-3.390;2023-07-20T09:02:38;101640.41;;;18.71;100.00
23261;BME280;11799;47.740;-3.390;2023-07-20T09:05:06;101647.19;;;18.66;100.00
23261;BME280;11799;47.740;-3.390;2023-07-20T09:07:32;101642.84;;;18.65;100.00
23261;BME280;11799;47.740;-3.390;2023-07-20T09:09:58;101645.38;;;18.66;100.00
23261;BME280;11799;47.740;-3.390;2023-07-20T09:12:25;101650.41;;;18.69;100.00
23261;BME280;11799;47.740;-3.390;2023-07-20T09:14:51;101654.91;;;18.69;100.00
23261;BME280;11799;47.740;-3.390;2023-07-20T09:17:16;101643.06;;;18.71;100.00
23261;BME280;11799;47.740;-3.390;2023-07-20T09:19:46;101647.28;;;18.74;100.00
23261;BME280;11799;47.740;-3.390;2023-07-20T09:22:12;101664.72;;;18.78;100.00
23261;BME280;11799;47.740;-3.390;2023-07-20T09:24:37;101653.03;;;18.79;100.00
23261;BME280;11799;47.740;-3.390;2023-07-20T09:27:03;101659.22;;;18.79;100.00
23261;BME280;11799;47.740;-3.390;2023-07-20T09:29:29;101668.78;;;18.82;100.00
23261;BME280;11799;47.740;-3.390;2023-07-20T09:32:03;101667.31;;;18.88;100.00
23261;BME280;11799;47.740;-3.390;2023-07-20T09:34:30;101667.16;;;18.89;100.00
23261;BME280;11799;47.740;-3.390;2023-07-20T09:36:59;101662.66;;;18.90;100.00
23261;BME280;11799;47.740;-3.390;2023-07-20T09:39:26;101655.31;;;18.92;100.00
23261;BME280;11799;47.740;-3.390;2023-07-20T09:41:52;101646.59;;;18.90;100.00
23261;BME280;11799;47.740;-3.390;2023-07-20T09:44:17;101650.66;;;18.94;100.00
23261;BME280;11799;47.740;-3.390;2023-07-20T09:46:50;101640.09;;;18.92;100.00
23261;BME280;11799;47.740;-3.390;2023-07-20T09:49:19;101635.44;;;18.94;100.00
23261;BME280;11799;47.740;-3.390;2023-07-20T09:51:45;101623.44;;;18.98;100.00
23261;BME280;11799;47.740;-3.390;2023-07-20T09:54:13;101618.31;;;19.05;100.00
23261;BME280;11799;47.740;-3.390;2023-07-20T09:56:39;101627.53;;;19.10;100.00
23261;BME280;11799;47.740;-3.390;2023-07-20T09:59:06;101615.97;;;19.10;100.00
23261;BME280;11799;47.740;-3.390;2023-07-20T10:01:32;101615.19;;;19.18;100.00
23261;BME280;11799;47.740;-3.390;2023-07-20T10:04:02;101611.38;;;19.20;100.00
23261;BME280;11799;47.740;-3.390;2023-07-20T10:06:32;101614.94;;;19.29;100.00
23261;BME280;11799;47.740;-3.390;2023-07-20T10:09:02;101612.78;;;19.32;100.00
23261;BME280;11799;47.740;-3.390;2023-07-20T10:11:35;101615.31;;;19.34;100.00
23261;BME280;11799;47.740;-3.390;2023-07-20T10:14:03;101608.44;;;19.31;100.00
23261;BME280;11799;47.740;-3.390;2023-07-20T10:16:34;101608.66;;;19.38;100.00
23261;BME280;11799;47.740;-3.390;2023-07-20T10:21:48;101608.84;;;19.44;100.00
23261;BME280;11799;47.740;-3.390;2023-07-20T10:24:17;101606.56;;;19.50;100.00
23261;BME280;11799;47.740;-3.390;2023-07-20T10:26:43;101601.75;;;19.53;100.00
23261;BME280;11799;47.740;-3.390;2023-07-20T10:29:09;101596.06;;;19.56;100.00
23261;BME280;11799;47.740;-3.390;2023-07-20T10:31:36;101593.72;;;19.53;100.00
23261;BME280;11799;47.740;-3.390;2023-07-20T10:34:03;101597.59;;;19.59;100.00
23261;BME280;11799;47.740;-3.390;2023-07-20T10:36:29;101584.72;;;19.62;100.00
23261;BME280;11799;47.740;-3.390;2023-07-20T10:38:56;101588.41;;;19.69;100.00
23261;BME280;11799;47.740;-3.390;2023-07-20T10:41:28;101586.78;;;19.76;100.00
23261;BME280;11799;47.740;-3.390;2023-07-20T10:44:04;101578.25;;;19.81;100.00
23261;BME280;11799;47.740;-3.390;2023-07-20T10:46:44;101577.94;;;19.84;100.00
23261;BME280;11799;47.740;-3.390;2023-07-20T10:49:11;101580.28;;;19.87;100.00
23261;BME280;11799;47.740;-3.390;2023-07-20T10:51:42;101577.94;;;19.84;100.00
23261;BME280;11799;47.740;-3.390;2023-07-20T10:56:55;101575.63;;;19.89;100.00
23261;BME280;11799;47.740;-3.390;2023-07-20T11:01:56;101569.13;;;20.00;100.00
23261;BME280;11799;47.740;-3.390;2023-07-20T11:04:54;101576.69;;;20.04;100.00
23261;BME280;11799;47.740;-3.390;2023-07-20T11:07:37;101573.69;;;20.07;100.00
23261;BME280;11799;47.740;-3.390;2023-07-20T11:10:15;101572.34;;;20.11;100.00
23261;BME280;11799;47.740;-3.390;2023-07-20T11:12:41;101571.00;;;20.24;100.00
23261;BME280;11799;47.740;-3.390;2023-07-20T11:15:06;101571.19;;;20.30;100.00
23261;BME280;11799;47.740;-3.390;2023-07-20T11:17:33;101559.94;;;20.27;100.00
23261;BME280;11799;47.740;-3.390;2023-07-20T11:20:00;101552.59;;;20.29;100.00
23261;BME280;11799;47.740;-3.390;2023-07-20T11:22:27;101552.75;;;20.35;100.00
23261;BME280;11799;47.740;-3.390;2023-07-20T11:24:56;101544.59;;;20.53;100.00
23261;BME280;11799;47.740;-3.390;2023-07-20T11:27:21;101545.44;;;20.54;100.00
23261;BME280;11799;47.740;-3.390;2023-07-20T11:29:50;101541.41;;;20.50;100.00
23261;BME280;11799;47.740;-3.390;2023-07-20T11:32:23;101541.41;;;20.50;100.00
23261;BME280;11799;47.740;-3.390;2023-07-20T11:34:49;101536.06;;;20.50;100.00
23261;BME280;11799;47.740;-3.390;2023-07-20T11:37:16;101543.59;;;20.46;100.00
23261;BME280;11799;47.740;-3.390;2023-07-20T11:39:42;101533.69;;;20.47;100.00
23261;BME280;11799;47.740;-3.390;2023-07-20T11:42:08;101536.56;;;20.53;100.00
23261;BME280;11799;47.740;-3.390;2023-07-20T11:44:33;101522.13;;;20.54;100.00
23261;BME280;11799;47.740;-3.390;2023-07-20T11:47:04;101527.50;;;20.62;100.00
23261;BME280;11799;47.740;-3.390;2023-07-20T11:49:34;101510.56;;;20.62;100.00
23261;BME280;11799;47.740;-3.390;2023-07-20T11:52:01;101527.19;;;20.65;100.00
23261;BME280;11799;47.740;-3.390;2023-07-20T11:54:27;101523.47;;;20.66;100.00
23261;BME280;11799;47.740;-3.390;2023-07-20T11:56:55;101508.56;;;20.72;100.00
23261;BME280;11799;47.740;-3.390;2023-07-20T11:59:21;101496.97;;;20.80;100.00
23261;BME280;11799;47.740;-3.390;2023-07-20T12:01:47;101501.31;;;20.89;100.00
23261;BME280;11799;47.740;-3.390;2023-07-20T12:04:13;101501.78;;;21.00;100.00
23261;BME280;11799;47.740;-3.390;2023-07-20T12:06:38;101497.75;;;21.04;100.00
23261;BME280;11799;47.740;-3.390;2023-07-20T12:09:04;101495.75;;;20.98;100.00
23261;BME280;11799;47.740;-3.390;2023-07-20T12:11:34;101496.44;;;20.92;100.00
23261;BME280;11799;47.740;-3.390;2023-07-20T12:14:00;101496.59;;;20.91;100.00
23261;BME280;11799;47.740;-3.390;2023-07-20T12:16:29;101495.41;;;21.01;100.00
23261;BME280;11799;47.740;-3.390;2023-07-20T12:19:02;101502.09;;;21.14;100.00
23261;BME280;11799;47.740;-3.390;2023-07-20T12:21:33;101495.72;;;21.23;100.00
23261;BME280;11799;47.740;-3.390;2023-07-20T12:23:59;101489.00;;;21.27;100.00
23261;BME280;11799;47.740;-3.390;2023-07-20T12:26:25;101497.72;;;21.37;100.00
23261;BME280;11799;47.740;-3.390;2023-07-20T12:28:52;101490.41;;;21.54;100.00
23261;BME280;11799;47.740;-3.390;2023-07-20T12:31:18;101502.94;;;21.69;100.00
23261;BME280;11799;47.740;-3.390;2023-07-20T12:33:44;101492.19;;;21.69;100.00
23261;BME280;11799;47.740;-3.390;2023-07-20T12:36:09;101493.81;;;21.79;100.00
23261;BME280;11799;47.740;-3.390;2023-07-20T12:38:36;101489.06;;;21.89;100.00
23261;BME280;11799;47.740;-3.390;2023-07-20T12:41:02;101480.56;;;22.00;100.00
23261;BME280;11799;47.740;-3.390;2023-07-20T12:43:28;101483.19;;;22.16;100.00